• Join FlightAware (Why Join?)
  • Login
  • US Flag 
07:31PM EDT


 

Airport Tracker/Info


-or-


 

Live Flight TrackerFlight Track Log ✈ N658FE ✈ 01-May-2013 ✈ KMEM - KRIC

Flight Track Log - Related Links

Times and Time Zones

All times are in EDT time to prevent confusion due to time zone crossing. See the N658FE flight status page for this flight to view local times or setup timezone preferences in your user account.

Time Position Orientation Groundspeed Altitude Reporting Facility
EDT Latitude Longitude Course Direction KTS MPH feet Rate Location/Type
05:19PM 35.0167 -89.9667 158° South 140 161 1,200  Level KMEM
05:20PM 34.9500 -89.9333 158° South 272 313 5,600 3,600 Climbing KMEM
05:21PM 34.9667 -89.8500 76° East 262 302 9,700 3,120 Climbing KMEM
05:22PM 34.9789 -89.7667 80° East 329 379 11,400 2,940 Climbing Memphis Center
05:23PM 34.9886 -89.6297 85° East 360 414 15,500 3,540 Climbing Memphis Center
05:24PM 34.9981 -89.4978 85° East 383 441 18,500 2,880 Climbing Memphis Center
05:25PM 35.0094 -89.3481 85° East 413 475 21,300 2,760 Climbing Memphis Center
05:26PM 35.0206 -89.1983 85° East 435 501 24,100 2,520 Climbing Memphis Center
05:27PM 35.0253 -89.0436 88° East 451 519 26,400 2,580 Climbing Memphis Center
05:28PM 35.0278 -88.8836 89° East 458 527 29,300 2,280 Climbing Memphis Center
05:29PM 35.0303 -88.7442 89° East 458 527 31,000 240 Climbing Memphis Center
05:35PM 35.2290 -87.7900 89° East 33,000 120 Climbing FlightAware
05:36PM 35.2550 -87.6870 73° East 33,000  Level FlightAware
05:37PM 35.2860 -87.5620 73° East 33,000  Level FlightAware
05:38PM 35.3230 -87.4150 73° East 33,000  Level FlightAware
05:39PM 35.3480 -87.3160 73° East 33,000  Level FlightAware
05:39PM 35.3730 -87.2170 73° East 33,000  Level FlightAware
05:40PM 35.4010 -87.1030 73° East 33,000  Level FlightAware
05:41PM 35.4250 -87.0020 74° East 33,000  Level FlightAware
05:41PM 35.4490 -86.9040 73° East 33,000  Level FlightAware
05:42PM 35.4718 -86.8112 73° East 458 527 33,000  Level FlightAware ADS-B
05:43PM 35.4918 -86.7285 73° East 458 527 33,000  Level FlightAware ADS-B
05:44PM 35.5290 -86.5770 73° East 33,000  Level FlightAware
05:44PM 35.5530 -86.4750 74° East 33,000  Level FlightAware
05:45PM 35.5840 -86.3650 71° East 33,000  Level FlightAware
05:46PM 35.6150 -86.2670 69° East 33,000  Level FlightAware
05:46PM 35.6318 -86.2137 69° East 451 519 33,000  Level FlightAware ADS-B
05:47PM 35.6728 -86.0817 69° East 471 542 33,000  Level FlightAware ADS-B
05:47PM 35.6960 -86.0066 69° East 465 535 33,000  Level FlightAware ADS-B
05:48PM 35.7191 -85.9313 69° East 460 529 33,000  Level FlightAware ADS-B
05:48PM 35.7470 -85.8400 69° East 33,000  Level FlightAware
05:49PM 35.7715 -85.7603 69° East 470 541 33,000  Level FlightAware ADS-B
05:49PM 35.7950 -85.6834 69° East 494 568 33,000  Level FlightAware ADS-B
05:50PM 35.8180 -85.6077 69° East 478 550 33,000  Level FlightAware ADS-B
05:50PM 35.8412 -85.5308 70° East 464 534 33,000  Level FlightAware ADS-B
05:51PM 35.8647 -85.4529 70° East 455 524 33,000  Level FlightAware ADS-B
05:52PM 35.8961 -85.3488 70° East 472 543 33,000  Level FlightAware ADS-B
05:52PM 35.9191 -85.2724 70° East 465 535 33,000  Level FlightAware ADS-B
05:53PM 35.9528 -85.1605 70° East 476 548 33,000  Level FlightAware ADS-B
05:53PM 35.9761 -85.0824 70° East 472 543 33,000  Level FlightAware ADS-B
05:54PM 35.9991 -85.0053 70° East 479 551 33,000  Level FlightAware ADS-B
05:55PM 36.0245 -84.9193 70° East 471 542 33,000  Level FlightAware ADS-B
05:55PM 36.0475 -84.8421 70° East 491 565 33,000  Level FlightAware ADS-B
05:56PM 36.0698 -84.7662 70° East 485 558 33,000  Level FlightAware ADS-B
05:56PM 36.0926 -84.6893 70° East 468 539 33,000  Level FlightAware ADS-B
05:57PM 36.1152 -84.6124 70° East 477 549 33,000  Level FlightAware ADS-B
05:57PM 36.1373 -84.5367 70° East 464 534 33,000  Level FlightAware ADS-B
05:58PM 36.1623 -84.4507 70° East 464 534 33,000  Level FlightAware ADS-B
05:58PM 36.1874 -84.3645 70° East 468 539 33,000  Level FlightAware ADS-B
05:59PM 36.2099 -84.2875 70° East 482 555 33,000  Level FlightAware ADS-B
05:59PM 36.2326 -84.2089 70° East 481 554 33,000  Level FlightAware ADS-B
06:00PM 36.2563 -84.1273 70° East 469 540 33,000  Level FlightAware ADS-B
06:00PM 36.2848 -84.0277 70° East 481 554 33,000  Level FlightAware ADS-B
06:01PM 36.3073 -83.9498 70° East 456 525 33,000  Level FlightAware ADS-B
06:01PM 36.3294 -83.8722 71° East 484 557 33,000  Level FlightAware ADS-B
06:02PM 36.3512 -83.7958 70° East 468 539 33,000  Level FlightAware ADS-B
06:02PM 36.3733 -83.7180 71° East 476 548 33,000  Level FlightAware ADS-B
06:03PM 36.3958 -83.6387 71° East 466 536 33,000  Level FlightAware ADS-B
06:03PM 36.4183 -83.5593 71° East 476 548 33,000  Level FlightAware ADS-B
06:04PM 36.4400 -83.4818 71° East 475 547 33,000  Level FlightAware ADS-B
06:04PM 36.4636 -83.3979 71° East 460 529 33,000  Level FlightAware ADS-B
06:05PM 36.4956 -83.2836 71° East 480 552 33,000  Level FlightAware ADS-B
06:06PM 36.5222 -83.1883 71° East 487 560 33,000  Level FlightAware ADS-B
06:06PM 36.5446 -83.1073 71° East 483 556 33,000  Level FlightAware ADS-B
06:07PM 36.5687 -83.0208 71° East 482 555 33,000  Level FlightAware ADS-B
06:08PM 36.5960 -82.9215 71° East 464 534 33,000  Level FlightAware ADS-B
06:08PM 36.6183 -82.8405 71° East 489 563 33,000  Level FlightAware ADS-B
06:09PM 36.6554 -82.7060 71° East 479 551 33,000  Level FlightAware ADS-B
06:09PM 36.6772 -82.6261 71° East 469 540 33,000  Level FlightAware ADS-B
06:10PM 36.6991 -82.5449 71° East 468 539 33,000  Level FlightAware ADS-B
06:10PM 36.7210 -82.4649 71° East 496 571 33,000  Level FlightAware ADS-B
06:11PM 36.7429 -82.3837 71° East 476 548 33,000  Level FlightAware ADS-B
06:12PM 36.7922 -82.2002 71° East 479 551 33,000 -540 Level FlightAware ADS-B
06:13PM 36.8403 -82.0016 73° East 478 550 31,700 -1,020 Descending FlightAware ADS-B
06:14PM 36.8681 -81.8588 76° East 475 547 30,800 -900 Descending FlightAware ADS-B
06:16PM 36.9082 -81.6535 76° East 29,400 -900 Descending FlightAware ADS-B
06:16PM 36.9275 -81.5486 76° East 450 518 29,000 -240 Descending Atlanta Center
06:17PM 36.9536 -81.3997 78° East 440 506 29,000  Level Atlanta Center
06:18PM 36.9817 -81.2508 77° East 435 501 29,000  Level Atlanta Center
06:19PM 37.0078 -81.1147 76° East 435 501 29,000  Level Atlanta Center
06:21PM 37.0606 -80.8547 76° East 427 491 29,000  Level Washington Center
06:22PM 37.0900 -80.7031 76° East 433 498 29,000  Level Washington Center
06:23PM 37.1133 -80.5483 79° East 438 504 29,000  Level Washington Center
06:24PM 37.1411 -80.3808 78° East 446 513 29,000  Level Washington Center
06:25PM 37.1656 -80.2311 78° East 446 513 29,000 -300 Level Washington Center
06:26PM 37.1881 -80.0814 79° East 446 513 28,500 -780 Descending Washington Center
06:27PM 37.2125 -79.9289 79° East 446 513 27,500 -1,020 Descending Washington Center
06:28PM 37.2339 -79.7944 79° East 446 513 26,500 -1,020 Descending Washington Center
06:29PM 37.2558 -79.6442 80° East 446 513 25,500 -1,020 Descending Washington Center
06:30PM 37.2817 -79.4917 78° East 446 513 24,500 -1,380 Descending Washington Center
06:31PM 37.3036 -79.3333 80° East 441 507 22,800 2,220 Descending Washington Center
06:32PM 37.3264 -79.1986 78° East 415 478 29,000 -1,800 Climbing Washington Center
06:33PM 37.3467 -79.0794 78° East 391 450 19,200 -5,700 Descending Washington Center
06:34PM 37.3647 -78.9550 80° East 378 435 17,600 -1,860 Descending Washington Center
06:35PM 37.3850 -78.8331 78° East 365 420 15,600 -1,980 Descending Washington Center
06:36PM 37.4028 -78.7133 79° East 353 406 13,700 -2,040 Descending Washington Center
06:37PM 37.4206 -78.5861 80° East 342 394 11,500 -1,740 Descending Washington Center
06:38PM 37.4356 -78.4819 80° East 330 380 10,200 -1,080 Descending Washington Center
06:39PM 37.4506 -78.3806 79° East 304 350 9,400 -660 Descending Washington Center
06:40PM 37.4650 -78.2894 79° East 284 327 9,000 -240 Descending Washington Center
06:41PM 37.4775 -78.2061 79° East 269 310 9,000 -660 Level Washington Center
06:47PM 37.5620 -77.6470 79° East 3,400 -720 Descending FlightAware
06:48PM 37.5720 -77.6140 69° East 3,000 -480 Descending FlightAware
06:48PM 37.5830 -77.5780 69° East 2,600 -420 Descending FlightAware
06:49PM 37.5930 -77.5430 70° East 2,400 -360 Descending FlightAware
06:49PM 37.6030 -77.5110 68° East 2,100 -360 Descending FlightAware
06:50PM 37.6120 -77.4830 68° East 1,900 -300 Descending FlightAware
06:50PM 37.6200 -77.4540 71° East 1,800 -240 Descending FlightAware
06:50PM 37.6210 -77.4390 85° East 1,700 -240 Descending FlightAware
06:51PM 37.6160 -77.4170 106° East 1,700 -240 Level FlightAware
06:52PM 37.5930 -77.3850 132° Southeast 1,500 -300 Descending FlightAware
06:52PM 37.5667 -77.3667 132° Southeast 160 184 1,300 -600 Descending Potomac TRACON
06:53PM 37.5333 -77.3333 142° Southeast 130 150 500 -780 Descending Potomac TRACON
06:55PM 37.5000 -77.3167 90° East  Level FlightAware Approximate
07:02PM 37.5052 -77.3197 90° East  Level Estimated
07:03PM 37.5000 -77.3167 90° East  Level FlightAware Approximate
07:04PM 37.5052 -77.3197 90° East  Level Estimated
07:05PM 37.5000 -77.3167 90° East  Level FlightAware Approximate